createdAt,value
2018-12-13T05:00:28.977Z,0.00
2018-12-13T05:01:28.938Z,0.00
2018-12-13T05:02:28.926Z,0.00
2018-12-13T05:03:28.915Z,0.00
2018-12-13T05:04:28.922Z,0.00
2018-12-13T05:05:28.945Z,0.00
2018-12-13T05:06:28.881Z,0.00
2018-12-13T05:07:28.877Z,0.00
2018-12-13T05:08:28.862Z,0.00
2018-12-13T05:09:28.864Z,0.00
2018-12-13T05:10:28.842Z,0.00
2018-12-13T05:11:28.830Z,0.00
2018-12-13T05:12:28.817Z,0.00
2018-12-13T05:13:28.806Z,0.00
2018-12-13T05:14:28.807Z,0.00
2018-12-13T05:15:28.783Z,0.00
2018-12-13T05:16:28.783Z,0.00
2018-12-13T05:17:28.761Z,0.00
2018-12-13T05:18:28.753Z,0.00
2018-12-13T05:19:28.749Z,0.00
2018-12-13T05:20:28.730Z,0.00
2018-12-13T05:21:28.714Z,0.00
2018-12-13T05:22:28.706Z,0.00
2018-12-13T05:23:28.697Z,0.00
2018-12-13T05:24:28.696Z,0.00
2018-12-13T05:25:28.678Z,0.00
2018-12-13T05:26:28.662Z,0.00
2018-12-13T05:27:28.652Z,0.00
2018-12-13T05:28:28.641Z,0.00
2018-12-13T05:29:28.647Z,0.00
2018-12-13T05:30:28.618Z,0.00
2018-12-13T05:31:28.622Z,0.00
2018-12-13T05:32:28.594Z,0.00
2018-12-13T05:33:28.582Z,0.00
2018-12-13T05:34:28.591Z,0.00
2018-12-13T05:35:28.560Z,0.00
2018-12-13T05:36:28.558Z,0.00
2018-12-13T05:37:28.544Z,0.00
2018-12-13T05:38:28.537Z,0.00
2018-12-13T05:39:28.532Z,0.00
2018-12-13T05:40:28.503Z,0.00
2018-12-13T05:41:28.492Z,0.00
2018-12-13T05:42:28.483Z,0.00
2018-12-13T05:43:28.475Z,0.00
2018-12-13T05:44:28.480Z,0.00
2018-12-13T05:45:28.452Z,0.00
2018-12-13T05:46:28.443Z,0.00
2018-12-13T05:47:28.432Z,0.00
2018-12-13T05:48:28.418Z,0.00
2018-12-13T05:49:28.417Z,0.00
2018-12-13T05:50:28.397Z,0.00
2018-12-13T05:51:28.382Z,0.00
2018-12-13T05:52:28.371Z,0.00
2018-12-13T05:53:28.366Z,0.00
2018-12-13T05:54:28.366Z,0.00
2018-12-13T05:55:28.337Z,0.00
2018-12-13T05:56:28.327Z,0.00
2018-12-13T05:57:28.316Z,0.00
2018-12-13T05:58:28.306Z,0.00
2018-12-13T05:59:28.309Z,0.00
2018-12-13T06:00:28.286Z,0.00
2018-12-13T06:01:28.270Z,0.00
2018-12-13T06:02:28.263Z,0.00
2018-12-13T06:03:28.259Z,0.00
2018-12-13T06:04:28.257Z,0.00
2018-12-13T06:05:28.237Z,0.00
2018-12-13T06:06:28.216Z,0.00
2018-12-13T06:07:28.209Z,0.00
2018-12-13T06:08:28.195Z,0.00
2018-12-13T06:09:28.197Z,0.00
2018-12-13T06:10:28.171Z,0.00
2018-12-13T06:11:28.160Z,0.00
2018-12-13T06:12:28.152Z,0.00
2018-12-13T06:13:28.150Z,0.00
2018-12-13T06:14:28.139Z,0.00
2018-12-13T06:15:28.116Z,0.00
2018-12-13T06:16:28.105Z,0.00
2018-12-13T06:17:28.109Z,0.00
2018-12-13T06:18:28.085Z,0.00
2018-12-13T06:19:28.103Z,0.00
2018-12-13T06:20:28.058Z,0.00
2018-12-13T06:21:28.073Z,0.00
2018-12-13T06:22:28.042Z,0.00
2018-12-13T06:23:28.030Z,0.00
2018-12-13T06:24:28.019Z,0.00
2018-12-13T06:25:28.024Z,0.00
2018-12-13T06:26:27.997Z,0.00
2018-12-13T06:27:27.987Z,0.00
2018-12-13T06:28:27.974Z,0.00
2018-12-13T06:29:27.977Z,0.00
2018-12-13T06:30:27.966Z,0.00
2018-12-13T06:31:27.937Z,0.00
2018-12-13T06:32:27.926Z,0.00
2018-12-13T06:33:28.349Z,0.00
2018-12-13T06:34:27.906Z,0.00
2018-12-13T06:35:27.904Z,0.00
2018-12-13T06:36:27.882Z,0.00
2018-12-13T06:37:27.871Z,0.00
2018-12-13T06:38:27.859Z,4.00
2018-12-13T06:39:27.846Z,0.00
2018-12-13T06:40:27.850Z,4.00
2018-12-13T06:41:27.829Z,0.00
2018-12-13T06:42:27.813Z,4.00
2018-12-13T06:43:27.802Z,8.00
2018-12-13T06:44:27.794Z,8.00
2018-12-13T06:45:27.791Z,8.00
2018-12-13T06:46:27.769Z,8.00
2018-12-13T06:47:27.756Z,12.00
2018-12-13T06:48:27.747Z,12.00
2018-12-13T06:49:27.733Z,12.00
2018-12-13T06:50:27.734Z,16.00
2018-12-13T06:51:27.720Z,20.00
2018-12-13T06:52:27.699Z,20.00
2018-12-13T06:53:27.692Z,24.00
2018-12-13T06:54:27.677Z,24.00
2018-12-13T06:55:27.679Z,24.00
2018-12-13T06:56:27.654Z,24.00
2018-12-13T06:57:27.642Z,28.00
2018-12-13T06:58:27.634Z,28.00
2018-12-13T06:59:27.622Z,36.00
2018-12-13T07:00:27.610Z,32.00
2018-12-13T07:01:27.586Z,36.00
2018-12-13T07:02:27.607Z,32.00
2018-12-13T07:03:27.617Z,36.00
2018-12-13T07:04:27.591Z,36.00
2018-12-13T07:05:27.630Z,36.00
2018-12-13T07:06:27.548Z,40.00
2018-12-13T07:07:27.536Z,44.00
2018-12-13T07:08:27.525Z,48.00
2018-12-13T07:09:27.523Z,56.00
2018-12-13T07:10:27.521Z,48.00
2018-12-13T07:11:27.490Z,48.00
2018-12-13T07:12:27.489Z,60.00
2018-12-13T07:13:27.465Z,64.00
2018-12-13T07:14:27.463Z,76.00
2018-12-13T07:15:27.476Z,96.00
2018-12-13T07:16:27.432Z,88.00
2018-12-13T07:17:27.423Z,84.00
2018-12-13T07:18:27.413Z,80.00
2018-12-13T07:19:27.397Z,96.00
2018-12-13T07:20:27.417Z,96.00
2018-12-13T07:21:27.390Z,100.00
2018-12-13T07:22:27.369Z,108.00
2018-12-13T07:23:27.362Z,124.00
2018-12-13T07:24:27.349Z,112.00
2018-12-13T07:25:27.355Z,100.00
2018-12-13T07:26:27.321Z,108.00
2018-12-13T07:27:27.314Z,136.00
2018-12-13T07:28:27.316Z,136.00
2018-12-13T07:29:27.291Z,120.00
2018-12-13T07:30:27.300Z,124.00
2018-12-13T07:31:27.280Z,132.00
2018-12-13T07:32:27.267Z,168.00
2018-12-13T07:33:27.253Z,176.00
2018-12-13T07:34:27.237Z,152.00
2018-12-13T07:35:27.236Z,172.00
2018-12-13T07:36:27.216Z,180.00
2018-12-13T07:37:27.903Z,176.00
2018-12-13T07:38:27.197Z,192.00
2018-12-13T07:39:27.197Z,236.00
2018-12-13T07:40:27.189Z,276.00
2018-12-13T07:41:27.160Z,280.00
2018-12-13T07:42:27.145Z,304.00
2018-12-13T07:43:27.137Z,336.00
2018-12-13T07:44:27.120Z,324.00
2018-12-13T07:45:27.152Z,332.00
2018-12-13T07:46:27.104Z,316.00
2018-12-13T07:47:27.108Z,292.00
2018-12-13T07:48:27.129Z,296.00
2018-12-13T07:49:27.104Z,308.00
2018-12-13T07:50:27.130Z,328.00
2018-12-13T07:51:27.081Z,308.00
2018-12-13T07:52:27.079Z,304.00
2018-12-13T07:53:27.186Z,284.00
2018-12-13T07:54:27.064Z,312.00
2018-12-13T07:55:27.053Z,320.00
2018-12-13T07:56:27.055Z,324.00
2018-12-13T07:57:27.067Z,304.00
2018-12-13T07:58:27.011Z,320.00
2018-12-13T07:59:27.044Z,352.00
2018-12-13T08:00:26.987Z,412.00
2018-12-13T08:01:26.929Z,480.00
2018-12-13T08:02:26.917Z,472.00
2018-12-13T08:03:26.906Z,452.00
2018-12-13T08:04:26.895Z,508.00
2018-12-13T08:05:26.895Z,572.00
2018-12-13T08:06:26.877Z,596.00
2018-12-13T08:07:26.866Z,612.00
2018-12-13T08:08:26.851Z,608.00
2018-12-13T08:09:26.838Z,568.00
2018-12-13T08:10:26.836Z,528.00
2018-12-13T08:11:26.816Z,552.00
2018-12-13T08:12:26.808Z,540.00
2018-12-13T08:13:26.800Z,488.00
2018-12-13T08:14:26.789Z,516.00
2018-12-13T08:15:26.790Z,612.00
2018-12-13T08:16:26.755Z,588.00
2018-12-13T08:17:26.752Z,556.00
2018-12-13T08:18:26.765Z,512.00
2018-12-13T08:19:26.729Z,480.00
2018-12-13T08:20:26.731Z,492.00
2018-12-13T08:21:26.706Z,516.00
2018-12-13T08:22:26.695Z,636.00
2018-12-13T08:23:26.683Z,676.00
2018-12-13T08:24:26.673Z,556.00
2018-12-13T08:25:26.677Z,568.00
2018-12-13T08:26:26.649Z,620.00
2018-12-13T08:27:26.640Z,676.00
2018-12-13T08:28:26.630Z,716.00
2018-12-13T08:29:26.616Z,772.00
2018-12-13T08:30:26.605Z,740.00
2018-12-13T08:31:26.610Z,664.00
2018-12-13T08:32:26.582Z,616.00
2018-12-13T08:33:26.570Z,680.00
2018-12-13T08:34:26.572Z,600.00
2018-12-13T08:35:26.544Z,692.00
2018-12-13T08:36:26.562Z,764.00
2018-12-13T08:37:26.530Z,852.00
2018-12-13T08:38:27.414Z,820.00
2018-12-13T08:39:26.513Z,692.00
2018-12-13T08:40:26.496Z,720.00
2018-12-13T08:41:26.497Z,988.00
2018-12-13T08:42:26.475Z,1296.00
2018-12-13T08:43:26.461Z,1140.00
2018-12-13T08:44:26.461Z,976.00
2018-12-13T08:45:26.447Z,716.00
2018-12-13T08:46:26.434Z,748.00
2018-12-13T08:47:26.418Z,988.00
2018-12-13T08:48:26.405Z,1224.00
2018-12-13T08:49:26.395Z,1016.00
2018-12-13T08:50:26.385Z,812.00
2018-12-13T08:51:26.389Z,744.00
2018-12-13T08:52:26.360Z,772.00
2018-12-13T08:53:26.349Z,752.00
2018-12-13T08:54:26.343Z,740.00
2018-12-13T08:55:26.325Z,800.00
2018-12-13T08:56:26.331Z,992.00
2018-12-13T08:57:26.306Z,1052.00
2018-12-13T08:58:26.294Z,1044.00
2018-12-13T08:59:26.291Z,980.00
2018-12-13T09:00:26.273Z,996.00
2018-12-13T09:01:26.274Z,1016.00
2018-12-13T09:02:26.250Z,932.00
2018-12-13T09:03:26.238Z,1020.00
2018-12-13T09:04:26.227Z,1052.00
2018-12-13T09:05:26.215Z,1300.00
2018-12-13T09:06:26.217Z,1120.00
2018-12-13T09:07:26.194Z,1028.00
2018-12-13T09:08:26.182Z,1344.00
2018-12-13T09:09:26.171Z,1564.00
2018-12-13T09:10:26.173Z,1484.00
2018-12-13T09:11:26.161Z,1588.00
2018-12-13T09:12:26.140Z,1668.00
2018-12-13T09:13:26.127Z,1596.00
2018-12-13T09:14:26.115Z,1700.00
2018-12-13T09:15:26.103Z,1552.00
2018-12-13T09:16:31.443Z,1316.00
2018-12-13T09:17:27.079Z,1584.00
2018-12-13T09:18:26.076Z,1968.00
2018-12-13T09:19:26.065Z,1996.00
2018-12-13T09:20:26.049Z,2360.00
2018-12-13T09:21:26.052Z,2236.00
2018-12-13T09:22:26.046Z,1620.00
2018-12-13T09:23:26.015Z,1672.00
2018-12-13T09:24:26.004Z,2204.00
2018-12-13T09:25:26.030Z,2544.00
2018-12-13T09:26:25.996Z,2124.00
2018-12-13T09:27:25.973Z,2276.00
2018-12-13T09:28:25.960Z,1992.00
2018-12-13T09:29:25.947Z,1760.00
2018-12-13T09:30:25.942Z,1768.00
2018-12-13T09:31:25.941Z,1764.00
2018-12-13T09:32:25.914Z,1504.00
2018-12-13T09:33:25.909Z,1752.00
2018-12-13T09:34:25.892Z,1656.00
2018-12-13T09:35:25.880Z,1588.00
2018-12-13T09:36:25.888Z,1612.00
2018-12-13T09:37:25.865Z,1676.00
2018-12-13T09:38:27.312Z,1564.00
2018-12-13T09:39:25.840Z,1284.00
2018-12-13T09:40:25.829Z,1352.00
2018-12-13T09:41:25.833Z,1480.00
2018-12-13T09:42:25.809Z,1184.00
2018-12-13T09:43:25.793Z,1140.00
2018-12-13T09:44:25.782Z,1204.00
2018-12-13T09:45:25.770Z,1088.00
2018-12-13T09:46:25.767Z,980.00
2018-12-13T09:47:25.752Z,1064.00
2018-12-13T09:48:25.737Z,1196.00
2018-12-13T09:49:25.725Z,1148.00
2018-12-13T09:50:25.714Z,1216.00
2018-12-13T09:51:25.715Z,1036.00
2018-12-13T09:52:25.694Z,1228.00
2018-12-13T09:53:25.681Z,1432.00
2018-12-13T09:54:25.669Z,1692.00
2018-12-13T09:55:25.657Z,1416.00
2018-12-13T09:56:25.662Z,1256.00
2018-12-13T09:57:25.642Z,1472.00
2018-12-13T09:58:25.627Z,1468.00
2018-12-13T09:59:25.616Z,1808.00
2018-12-13T10:00:25.607Z,1440.00
2018-12-13T10:01:25.606Z,992.00
2018-12-13T10:02:25.582Z,1092.00
2018-12-13T10:03:25.584Z,1336.00
2018-12-13T10:04:25.560Z,1396.00
2018-12-13T10:05:25.549Z,1452.00
2018-12-13T10:06:25.553Z,1640.00
2018-12-13T10:07:25.524Z,1468.00
2018-12-13T10:08:25.514Z,1448.00
2018-12-13T10:09:25.503Z,1424.00
2018-12-13T10:10:25.487Z,1468.00
2018-12-13T10:11:25.506Z,1256.00
2018-12-13T10:12:25.469Z,1400.00
2018-12-13T10:13:25.457Z,1528.00
2018-12-13T10:14:25.449Z,1420.00
2018-12-13T10:15:31.800Z,1192.00
2018-12-13T10:16:26.446Z,1204.00
2018-12-13T10:17:25.411Z,1148.00
2018-12-13T10:18:25.401Z,1044.00
2018-12-13T10:19:25.395Z,1252.00
2018-12-13T10:20:25.377Z,1436.00
2018-12-13T10:21:25.382Z,1448.00
2018-12-13T10:22:25.357Z,1316.00
2018-12-13T10:23:25.345Z,1376.00
2018-12-13T10:24:25.336Z,1348.00
2018-12-13T10:25:25.326Z,1508.00
2018-12-13T10:26:25.329Z,1592.00
2018-12-13T10:27:25.302Z,1288.00
2018-12-13T10:28:25.293Z,1232.00
2018-12-13T10:29:25.280Z,1224.00
2018-12-13T10:30:25.269Z,1272.00
2018-12-13T10:31:25.273Z,1636.00
2018-12-13T10:32:25.245Z,1632.00
2018-12-13T10:33:25.234Z,1684.00
2018-12-13T10:34:25.231Z,1432.00
2018-12-13T10:35:25.215Z,1400.00
2018-12-13T10:36:25.735Z,1744.00
2018-12-13T10:37:25.196Z,1944.00
2018-12-13T10:38:25.180Z,1280.00
2018-12-13T10:39:25.168Z,1324.00
2018-12-13T10:40:25.158Z,1404.00
2018-12-13T10:41:25.187Z,1652.00
2018-12-13T10:42:25.141Z,1580.00
2018-12-13T10:43:25.120Z,1736.00
2018-12-13T10:44:25.113Z,2080.00
2018-12-13T10:45:25.097Z,2012.00
2018-12-13T10:46:25.085Z,1896.00
2018-12-13T10:47:25.094Z,2124.00
2018-12-13T10:48:25.067Z,1500.00
2018-12-13T10:49:25.066Z,1484.00
2018-12-13T10:50:25.042Z,1508.00
2018-12-13T10:51:25.033Z,1592.00
2018-12-13T10:52:25.029Z,1676.00
2018-12-13T10:53:24.998Z,2076.00
2018-12-13T10:54:25.003Z,1588.00
2018-12-13T10:55:24.984Z,1520.00
2018-12-13T10:56:24.973Z,1464.00
2018-12-13T10:57:24.974Z,1408.00
2018-12-13T10:58:24.947Z,1508.00
2018-12-13T10:59:24.948Z,1340.00
2018-12-13T11:00:24.947Z,1500.00
2018-12-13T11:01:24.939Z,1616.00
2018-12-13T11:02:24.926Z,1852.00
2018-12-13T11:03:24.901Z,2116.00
2018-12-13T11:04:24.887Z,1544.00
2018-12-13T11:05:24.873Z,1644.00
2018-12-13T11:06:24.864Z,1876.00
2018-12-13T11:07:24.863Z,1720.00
2018-12-13T11:08:24.840Z,1364.00
2018-12-13T11:09:24.829Z,1460.00
2018-12-13T11:10:25.463Z,1476.00
2018-12-13T11:11:24.808Z,1268.00
2018-12-13T11:12:24.806Z,1108.00
2018-12-13T11:13:24.785Z,1288.00
2018-12-13T11:14:24.779Z,1480.00
2018-12-13T11:15:24.763Z,1520.00
2018-12-13T11:16:24.752Z,1912.00
2018-12-13T11:17:24.759Z,1336.00
2018-12-13T11:18:24.727Z,1468.00
2018-12-13T11:19:24.717Z,1440.00
2018-12-13T11:20:24.706Z,1364.00
2018-12-13T11:21:24.710Z,1676.00
2018-12-13T11:22:24.699Z,1752.00
2018-12-13T11:23:24.670Z,1868.00
2018-12-13T11:24:24.701Z,1988.00
2018-12-13T11:25:24.646Z,2232.00
2018-12-13T11:26:28.815Z,2176.00
2018-12-13T11:27:24.640Z,1912.00
2018-12-13T11:28:24.616Z,1392.00
2018-12-13T11:29:24.606Z,1224.00
2018-12-13T11:30:24.600Z,1432.00
2018-12-13T11:31:24.583Z,1328.00
2018-12-13T11:32:24.582Z,1072.00
2018-12-13T11:33:24.561Z,836.00
2018-12-13T11:34:24.548Z,840.00
2018-12-13T11:35:24.539Z,812.00
2018-12-13T11:36:24.527Z,1008.00
2018-12-13T11:37:24.527Z,1052.00
2018-12-13T11:38:26.538Z,1372.00
2018-12-13T11:39:24.553Z,1216.00
2018-12-13T11:40:24.488Z,1168.00
2018-12-13T11:41:26.493Z,1360.00
2018-12-13T11:42:24.467Z,1580.00
2018-12-13T11:43:24.452Z,1460.00
2018-12-13T11:44:24.436Z,1188.00
2018-12-13T11:45:24.425Z,1460.00
2018-12-13T11:46:24.416Z,1412.00
2018-12-13T11:47:24.426Z,1208.00
2018-12-13T11:48:24.395Z,1248.00
2018-12-13T11:49:24.383Z,1384.00
2018-12-13T11:50:24.376Z,1572.00
2018-12-13T11:51:24.365Z,1472.00
2018-12-13T11:52:24.360Z,1116.00
2018-12-13T11:53:24.339Z,1020.00
2018-12-13T11:54:24.328Z,1128.00
2018-12-13T11:55:24.314Z,1348.00
2018-12-13T11:56:24.304Z,1392.00
2018-12-13T11:57:24.305Z,1212.00
2018-12-13T11:58:24.283Z,1168.00
2018-12-13T11:59:24.270Z,1156.00
2018-12-13T12:00:24.258Z,1272.00
2018-12-13T12:01:24.248Z,1424.00
2018-12-13T12:02:24.253Z,1196.00
2018-12-13T12:03:24.224Z,1296.00
2018-12-13T12:04:24.214Z,1196.00
2018-12-13T12:05:24.203Z,1352.00
2018-12-13T12:06:24.194Z,1392.00
2018-12-13T12:07:24.196Z,1332.00
2018-12-13T12:08:24.172Z,1504.00
2018-12-13T12:09:24.161Z,1564.00
2018-12-13T12:10:24.156Z,1764.00
2018-12-13T12:11:24.136Z,1812.00
2018-12-13T12:12:24.146Z,2164.00
2018-12-13T12:13:24.119Z,2396.00
2018-12-13T12:14:24.104Z,2192.00
2018-12-13T12:15:24.093Z,1524.00
2018-12-13T12:16:24.081Z,1352.00
2018-12-13T12:17:24.082Z,1436.00
2018-12-13T12:18:24.058Z,1592.00
2018-12-13T12:19:24.048Z,1688.00
2018-12-13T12:20:24.037Z,2052.00
2018-12-13T12:21:24.029Z,2380.00
2018-12-13T12:22:24.043Z,2752.00
2018-12-13T12:23:24.008Z,2072.00
2018-12-13T12:24:23.991Z,1664.00
2018-12-13T12:25:23.980Z,1700.00
2018-12-13T12:26:23.970Z,1560.00
2018-12-13T12:27:23.970Z,1988.00
2018-12-13T12:28:23.945Z,1964.00
2018-12-13T12:29:23.931Z,1876.00
2018-12-13T12:30:23.922Z,2056.00
2018-12-13T12:31:23.914Z,1928.00
2018-12-13T12:32:24.125Z,1788.00
2018-12-13T12:33:23.890Z,1300.00
2018-12-13T12:34:23.868Z,1104.00
2018-12-13T12:35:23.865Z,1156.00
2018-12-13T12:36:23.854Z,1476.00
2018-12-13T12:37:23.857Z,1508.00
2018-12-13T12:38:23.833Z,1368.00
2018-12-13T12:39:23.823Z,1568.00
2018-12-13T12:40:23.810Z,1560.00
2018-12-13T12:41:23.800Z,1488.00
2018-12-13T12:42:23.817Z,1760.00
2018-12-13T12:43:23.775Z,1704.00
2018-12-13T12:44:23.764Z,1664.00
2018-12-13T12:45:23.753Z,1544.00
2018-12-13T12:46:25.817Z,1548.00
2018-12-13T12:47:25.708Z,1704.00
2018-12-13T12:48:23.730Z,1724.00
2018-12-13T12:49:23.709Z,1732.00
2018-12-13T12:50:23.697Z,1728.00
2018-12-13T12:51:23.686Z,2012.00
2018-12-13T12:52:23.678Z,1732.00
2018-12-13T12:53:23.674Z,1364.00
2018-12-13T12:54:23.651Z,1556.00
2018-12-13T12:55:23.640Z,1352.00
2018-12-13T12:56:23.633Z,1184.00
2018-12-13T12:57:23.618Z,1220.00
2018-12-13T12:58:23.622Z,1076.00
2018-12-13T12:59:23.597Z,948.00
2018-12-13T13:00:23.583Z,940.00
2018-12-13T13:01:23.592Z,1020.00
2018-12-13T13:02:23.562Z,1036.00
2018-12-13T13:03:23.574Z,1024.00
2018-12-13T13:04:23.540Z,1020.00
2018-12-13T13:05:23.527Z,952.00
2018-12-13T13:06:23.520Z,900.00
2018-12-13T13:07:23.511Z,780.00
2018-12-13T13:08:23.514Z,664.00
2018-12-13T13:09:25.139Z,756.00
2018-12-13T13:10:26.768Z,804.00
2018-12-13T13:11:24.761Z,752.00
2018-12-13T13:12:23.451Z,704.00
2018-12-13T13:13:23.457Z,616.00
2018-12-13T13:14:23.440Z,480.00
2018-12-13T13:15:23.421Z,428.00
2018-12-13T13:16:23.406Z,512.00
2018-12-13T13:17:23.394Z,520.00
2018-12-13T13:18:23.397Z,620.00
2018-12-13T13:19:23.372Z,624.00
2018-12-13T13:20:23.361Z,596.00
2018-12-13T13:21:23.351Z,548.00
2018-12-13T13:22:23.338Z,688.00
2018-12-13T13:23:27.283Z,820.00
2018-12-13T13:24:24.903Z,820.00
2018-12-13T13:25:23.305Z,688.00
2018-12-13T13:26:25.365Z,648.00
2018-12-13T13:27:23.296Z,620.00
2018-12-13T13:28:23.282Z,520.00
2018-12-13T13:29:23.258Z,408.00
2018-12-13T13:30:23.248Z,432.00
2018-12-13T13:31:23.240Z,412.00
2018-12-13T13:32:23.226Z,352.00
2018-12-13T13:33:23.226Z,392.00
2018-12-13T13:34:23.206Z,496.00
2018-12-13T13:35:23.192Z,592.00
2018-12-13T13:36:23.189Z,628.00
2018-12-13T13:37:23.173Z,636.00
2018-12-13T13:38:23.166Z,520.00
2018-12-13T13:39:23.148Z,504.00
2018-12-13T13:40:23.135Z,540.00
2018-12-13T13:41:23.125Z,656.00
2018-12-13T13:42:23.112Z,636.00
2018-12-13T13:43:23.114Z,620.00
2018-12-13T13:44:23.091Z,680.00
2018-12-13T13:45:23.077Z,724.00
2018-12-13T13:46:23.067Z,784.00
2018-12-13T13:47:23.055Z,672.00
2018-12-13T13:48:23.061Z,600.00
2018-12-13T13:49:23.033Z,616.00
2018-12-13T13:50:23.024Z,740.00
2018-12-13T13:51:23.010Z,640.00
2018-12-13T13:52:23.001Z,804.00
2018-12-13T13:53:23.021Z,812.00
2018-12-13T13:54:22.978Z,756.00
2018-12-13T13:55:22.966Z,712.00
2018-12-13T13:56:22.958Z,660.00
2018-12-13T13:57:22.948Z,552.00
2018-12-13T13:58:22.947Z,484.00
2018-12-13T13:59:22.925Z,428.00
2018-12-13T14:00:22.930Z,432.00
2018-12-13T14:01:22.902Z,412.00
2018-12-13T14:02:22.891Z,364.00
2018-12-13T14:03:22.895Z,324.00
2018-12-13T14:04:22.867Z,316.00
2018-12-13T14:05:22.857Z,332.00
2018-12-13T14:06:22.845Z,352.00
2018-12-13T14:07:22.834Z,308.00
2018-12-13T14:08:22.837Z,300.00
2018-12-13T14:09:22.814Z,276.00
2018-12-13T14:10:22.800Z,256.00
2018-12-13T14:11:22.855Z,292.00
2018-12-13T14:12:22.776Z,356.00
2018-12-13T14:13:22.781Z,320.00
2018-12-13T14:14:22.754Z,356.00
2018-12-13T14:15:22.754Z,356.00
2018-12-13T14:16:22.732Z,376.00
2018-12-13T14:17:22.721Z,356.00
2018-12-13T14:18:22.724Z,388.00
2018-12-13T14:19:22.720Z,368.00
2018-12-13T14:20:22.687Z,300.00
2018-12-13T14:21:22.674Z,272.00
2018-12-13T14:22:22.663Z,328.00
2018-12-13T14:23:22.663Z,344.00
2018-12-13T14:24:22.640Z,316.00
2018-12-13T14:25:22.630Z,304.00
2018-12-13T14:26:22.617Z,252.00
2018-12-13T14:27:22.610Z,224.00
2018-12-13T14:28:22.606Z,240.00
2018-12-13T14:29:22.585Z,232.00
2018-12-13T14:30:22.572Z,244.00
2018-12-13T14:31:22.561Z,232.00
2018-12-13T14:32:22.554Z,228.00
2018-12-13T14:33:22.561Z,212.00
2018-12-13T14:34:22.528Z,188.00
2018-12-13T14:35:22.521Z,216.00
2018-12-13T14:36:22.504Z,208.00
2018-12-13T14:37:22.501Z,180.00
2018-12-13T14:38:22.502Z,160.00
2018-12-13T14:39:22.487Z,196.00
2018-12-13T14:40:22.460Z,140.00
2018-12-13T14:41:22.452Z,120.00
2018-12-13T14:42:22.437Z,136.00
2018-12-13T14:43:22.442Z,132.00
2018-12-13T14:44:22.415Z,104.00
2018-12-13T14:45:22.402Z,84.00
2018-12-13T14:46:22.391Z,80.00
2018-12-13T14:47:22.384Z,96.00
2018-12-13T14:48:22.412Z,112.00
2018-12-13T14:49:22.360Z,120.00
2018-12-13T14:50:22.349Z,124.00
2018-12-13T14:51:22.342Z,116.00
2018-12-13T14:52:22.329Z,120.00
2018-12-13T14:53:22.317Z,104.00
2018-12-13T14:54:22.316Z,112.00
2018-12-13T14:55:22.293Z,128.00
2018-12-13T14:56:22.283Z,120.00
2018-12-13T14:57:22.274Z,128.00
2018-12-13T14:58:22.268Z,116.00
2018-12-13T14:59:22.263Z,104.00
2018-12-13T15:00:22.238Z,84.00
2018-12-13T15:01:22.226Z,60.00
2018-12-13T15:02:22.217Z,44.00
2018-12-13T15:03:22.207Z,44.00
2018-12-13T15:04:22.210Z,36.00
2018-12-13T15:05:22.188Z,32.00
2018-12-13T15:06:22.169Z,28.00
2018-12-13T15:07:22.156Z,24.00
2018-12-13T15:08:22.150Z,20.00
2018-12-13T15:09:22.146Z,20.00
2018-12-13T15:10:22.127Z,16.00
2018-12-13T15:11:22.112Z,16.00
2018-12-13T15:12:22.101Z,16.00
2018-12-13T15:13:22.093Z,20.00
2018-12-13T15:14:22.092Z,20.00
2018-12-13T15:15:22.069Z,16.00
2018-12-13T15:16:22.082Z,12.00
2018-12-13T15:17:22.044Z,12.00
2018-12-13T15:18:22.037Z,12.00
2018-12-13T15:19:22.025Z,12.00
2018-12-13T15:20:22.009Z,24.00
2018-12-13T15:21:22.002Z,24.00
2018-12-13T15:22:21.996Z,24.00
2018-12-13T15:23:21.975Z,24.00
2018-12-13T15:24:21.976Z,24.00
2018-12-13T15:25:21.954Z,20.00
2018-12-13T15:26:21.942Z,20.00
2018-12-13T15:27:21.926Z,20.00
2018-12-13T15:28:21.921Z,20.00
2018-12-13T15:29:21.922Z,20.00
2018-12-13T15:30:21.896Z,20.00
2018-12-13T15:31:21.884Z,16.00
2018-12-13T15:32:21.879Z,20.00
2018-12-13T15:33:21.866Z,16.00
2018-12-13T15:34:21.866Z,16.00
2018-12-13T15:35:21.905Z,20.00
2018-12-13T15:36:21.829Z,20.00
2018-12-13T15:37:23.277Z,16.00
2018-12-13T15:38:21.806Z,16.00
2018-12-13T15:39:21.879Z,16.00
2018-12-13T15:40:21.806Z,16.00
2018-12-13T15:41:21.771Z,16.00
2018-12-13T15:42:21.759Z,16.00
2018-12-13T15:43:21.750Z,16.00
2018-12-13T15:44:21.753Z,16.00
2018-12-13T15:45:21.730Z,16.00
2018-12-13T15:46:21.718Z,16.00
2018-12-13T15:47:21.707Z,16.00
2018-12-13T15:48:21.696Z,16.00
2018-12-13T15:49:21.697Z,16.00
2018-12-13T15:50:21.674Z,16.00
2018-12-13T15:51:21.661Z,16.00
2018-12-13T15:52:21.651Z,16.00
2018-12-13T15:53:21.639Z,16.00
2018-12-13T15:54:21.642Z,16.00
2018-12-13T15:55:21.618Z,16.00
2018-12-13T15:56:21.607Z,16.00
2018-12-13T15:57:21.594Z,16.00
2018-12-13T15:58:21.585Z,16.00
2018-12-13T15:59:21.583Z,16.00
2018-12-13T16:00:21.559Z,16.00
2018-12-13T16:01:21.555Z,16.00
2018-12-13T16:02:21.538Z,16.00
2018-12-13T16:03:21.527Z,16.00
2018-12-13T16:04:22.058Z,16.00
2018-12-13T16:05:21.504Z,16.00
2018-12-13T16:06:21.561Z,16.00
2018-12-13T16:07:21.478Z,16.00
2018-12-13T16:08:21.462Z,16.00
2018-12-13T16:09:21.475Z,16.00
2018-12-13T16:10:21.450Z,16.00
2018-12-13T16:11:21.438Z,16.00
2018-12-13T16:12:21.426Z,16.00
2018-12-13T16:13:21.416Z,16.00
2018-12-13T16:14:21.417Z,16.00
2018-12-13T16:15:21.390Z,16.00
2018-12-13T16:16:21.386Z,16.00
2018-12-13T16:17:21.368Z,16.00
2018-12-13T16:18:21.357Z,16.00
2018-12-13T16:19:21.352Z,16.00
2018-12-13T16:20:21.338Z,16.00
2018-12-13T16:21:21.325Z,16.00
2018-12-13T16:22:21.307Z,16.00
2018-12-13T16:23:21.303Z,16.00
2018-12-13T16:24:21.300Z,16.00
2018-12-13T16:25:21.279Z,16.00
2018-12-13T16:26:21.267Z,16.00
2018-12-13T16:27:21.255Z,16.00
2018-12-13T16:28:21.245Z,16.00
2018-12-13T16:29:21.244Z,16.00
2018-12-13T16:30:21.287Z,16.00
2018-12-13T16:31:21.211Z,16.00
2018-12-13T16:32:21.199Z,16.00
2018-12-13T16:33:21.189Z,16.00
2018-12-13T16:34:21.186Z,16.00
2018-12-13T16:35:21.165Z,16.00
2018-12-13T16:36:21.153Z,16.00
2018-12-13T16:37:21.143Z,16.00
2018-12-13T16:38:21.130Z,16.00
2018-12-13T16:39:21.131Z,16.00
2018-12-13T16:40:21.110Z,16.00
2018-12-13T16:41:21.100Z,16.00
2018-12-13T16:42:22.297Z,16.00
2018-12-13T16:43:21.073Z,16.00
2018-12-13T16:44:23.121Z,16.00
2018-12-13T16:45:21.052Z,16.00
2018-12-13T16:46:21.041Z,16.00
2018-12-13T16:47:21.028Z,16.00
2018-12-13T16:48:21.017Z,16.00
2018-12-13T16:49:21.018Z,16.00
2018-12-13T16:50:20.995Z,16.00
2018-12-13T16:51:20.983Z,16.00
2018-12-13T16:52:20.971Z,16.00
2018-12-13T16:53:20.948Z,16.00
2018-12-13T16:54:21.015Z,16.00
2018-12-13T16:55:21.476Z,16.00
2018-12-13T16:56:20.927Z,16.00
2018-12-13T16:57:20.915Z,16.00
2018-12-13T16:58:20.905Z,16.00
2018-12-13T16:59:20.897Z,16.00
2018-12-13T17:00:20.906Z,16.00
2018-12-13T17:01:20.871Z,16.00
2018-12-13T17:02:20.858Z,16.00
2018-12-13T17:03:20.847Z,16.00
2018-12-13T17:04:20.837Z,16.00
2018-12-13T17:05:20.826Z,16.00
2018-12-13T17:06:20.813Z,16.00
2018-12-13T17:07:20.802Z,16.00
2018-12-13T17:08:20.791Z,16.00
2018-12-13T17:09:20.783Z,16.00
2018-12-13T17:10:20.781Z,16.00
2018-12-13T17:11:20.757Z,16.00
2018-12-13T17:12:20.746Z,16.00
2018-12-13T17:13:20.725Z,16.00
2018-12-13T17:14:20.722Z,16.00
2018-12-13T17:15:20.740Z,16.00
2018-12-13T17:16:20.706Z,16.00
2018-12-13T17:17:20.688Z,16.00
2018-12-13T17:18:20.680Z,16.00
2018-12-13T17:19:22.664Z,16.00
2018-12-13T17:20:22.745Z,16.00
2018-12-13T17:21:22.414Z,16.00
2018-12-13T17:22:20.631Z,16.00
2018-12-13T17:23:20.621Z,16.00
2018-12-13T17:24:20.609Z,16.00
2018-12-13T17:25:20.609Z,16.00
2018-12-13T17:26:22.748Z,16.00
2018-12-13T17:27:20.859Z,16.00
2018-12-13T17:28:20.565Z,16.00
2018-12-13T17:29:20.552Z,16.00
2018-12-13T17:30:22.717Z,16.00
2018-12-13T17:31:20.530Z,16.00
2018-12-13T17:32:20.523Z,16.00
2018-12-13T17:33:20.517Z,16.00